createdAt,value
2018-03-26T00:00:26.544Z,4.50
2018-03-26T00:02:54.035Z,4.73
2018-03-26T00:05:21.508Z,4.40
2018-03-26T00:07:48.995Z,4.27
2018-03-26T00:10:16.481Z,4.57
2018-03-26T00:12:43.972Z,4.40
2018-03-26T00:15:11.476Z,4.20
2018-03-26T00:17:38.962Z,4.20
2018-03-26T00:20:06.468Z,4.57
2018-03-26T00:22:33.953Z,4.83
2018-03-26T00:25:01.441Z,5.03
2018-03-26T00:27:29.065Z,4.60
2018-03-26T00:29:56.547Z,4.97
2018-03-26T00:32:24.026Z,5.23
2018-03-26T00:34:51.622Z,4.73
2018-03-26T00:37:19.131Z,5.00
2018-03-26T00:39:46.622Z,4.40
2018-03-26T00:42:14.138Z,4.97
2018-03-26T00:44:41.631Z,6.00
2018-03-26T00:47:09.132Z,4.80
2018-03-26T00:49:36.618Z,4.90
2018-03-26T00:52:04.124Z,5.07
2018-03-26T00:54:31.619Z,5.80
2018-03-26T00:56:59.134Z,5.50
2018-03-26T00:59:26.686Z,5.37
2018-03-26T01:01:54.173Z,5.93
2018-03-26T01:04:21.702Z,5.10
2018-03-26T01:06:49.238Z,5.30
2018-03-26T01:09:16.727Z,5.03
2018-03-26T01:11:44.205Z,5.77
2018-03-26T01:14:11.674Z,5.63
2018-03-26T01:16:39.174Z,5.40
2018-03-26T01:19:06.679Z,5.87
2018-03-26T01:21:34.169Z,5.43
2018-03-26T01:24:01.660Z,5.57
2018-03-26T01:26:29.154Z,5.80
2018-03-26T01:28:56.664Z,6.37
2018-03-26T01:31:24.209Z,5.90
2018-03-26T01:33:51.709Z,5.97
2018-03-26T01:36:19.316Z,6.40
2018-03-26T01:38:46.793Z,6.00
2018-03-26T01:41:14.302Z,6.10
2018-03-26T01:43:41.781Z,6.27
2018-03-26T01:46:09.389Z,6.53
2018-03-26T01:48:36.877Z,6.83
2018-03-26T01:51:04.354Z,6.57
2018-03-26T01:53:31.829Z,6.17
2018-03-26T01:55:59.300Z,6.83
2018-03-26T01:58:26.789Z,6.73
2018-03-26T02:00:54.264Z,7.17
2018-03-26T02:03:22.069Z,6.57
2018-03-26T02:05:49.624Z,7.37
2018-03-26T02:08:17.139Z,6.93
2018-03-26T02:10:44.648Z,6.37
2018-03-26T02:13:12.138Z,6.83
2018-03-26T02:15:39.630Z,7.00
2018-03-26T02:18:07.131Z,7.07
2018-03-26T02:20:34.598Z,6.87
2018-03-26T02:23:02.092Z,6.77
2018-03-26T02:25:29.574Z,7.30
2018-03-26T02:27:57.056Z,7.53
2018-03-26T02:30:24.536Z,7.40
2018-03-26T02:32:52.030Z,6.80
2018-03-26T02:35:19.566Z,6.13
2018-03-26T02:37:47.115Z,7.20
2018-03-26T02:40:14.602Z,6.90
2018-03-26T02:42:42.085Z,6.70
2018-03-26T02:45:09.576Z,6.87
2018-03-26T02:47:37.059Z,6.80
2018-03-26T02:50:04.546Z,7.73
2018-03-26T02:52:32.062Z,10.43
2018-03-26T02:54:59.553Z,7.17
2018-03-26T02:57:27.041Z,6.83
2018-03-26T02:59:54.538Z,7.47
2018-03-26T03:02:22.029Z,6.17
2018-03-26T03:04:49.534Z,7.37
2018-03-26T03:07:17.058Z,6.60
2018-03-26T03:09:44.557Z,7.20
2018-03-26T03:12:12.086Z,7.07
2018-03-26T03:14:39.569Z,7.93
2018-03-26T03:17:07.072Z,7.03
2018-03-26T03:19:34.578Z,6.97
2018-03-26T03:22:02.070Z,7.00
2018-03-26T03:24:29.548Z,7.47
2018-03-26T03:26:57.028Z,7.00
2018-03-26T03:29:24.501Z,7.17
2018-03-26T03:31:52.020Z,7.30
2018-03-26T03:34:19.533Z,8.00
2018-03-26T03:36:47.029Z,6.83
2018-03-26T03:39:15.074Z,8.10
2018-03-26T03:41:42.570Z,8.67
2018-03-26T03:44:10.063Z,7.30
2018-03-26T03:46:37.565Z,8.10
2018-03-26T03:49:05.141Z,8.10
2018-03-26T03:51:32.622Z,7.43
2018-03-26T03:54:00.130Z,7.73
2018-03-26T03:56:27.637Z,7.80
2018-03-26T03:58:55.113Z,7.27
2018-03-26T04:01:22.610Z,19.43
2018-03-26T04:03:50.089Z,9.47
2018-03-26T04:06:17.580Z,9.10
2018-03-26T04:08:45.062Z,7.63
2018-03-26T04:11:12.765Z,7.60
2018-03-26T04:13:40.262Z,8.10
2018-03-26T04:16:07.770Z,8.50
2018-03-26T04:18:35.258Z,9.73
2018-03-26T04:21:02.761Z,8.90
2018-03-26T04:23:30.257Z,8.70
2018-03-26T04:25:57.789Z,7.77
2018-03-26T04:28:25.297Z,8.63
2018-03-26T04:30:52.815Z,8.03
2018-03-26T04:33:20.316Z,8.73
2018-03-26T04:35:47.792Z,7.87
2018-03-26T04:38:15.275Z,8.67
2018-03-26T04:40:42.851Z,7.93
2018-03-26T04:43:10.385Z,8.00
2018-03-26T04:45:37.879Z,9.53
2018-03-26T04:48:05.373Z,8.27
2018-03-26T04:50:32.849Z,8.10
2018-03-26T04:53:00.346Z,8.07
2018-03-26T04:55:27.820Z,8.37
2018-03-26T04:57:55.313Z,8.80
2018-03-26T05:00:22.820Z,8.87
2018-03-26T05:02:50.321Z,7.83
2018-03-26T05:05:17.848Z,9.20
2018-03-26T05:07:45.361Z,8.00
2018-03-26T05:10:12.861Z,9.20
2018-03-26T05:12:40.358Z,9.47
2018-03-26T05:15:08.020Z,9.27
2018-03-26T05:17:35.518Z,9.70
2018-03-26T05:20:03.061Z,9.03
2018-03-26T05:22:30.575Z,9.30
2018-03-26T05:24:58.101Z,8.63
2018-03-26T05:27:25.599Z,9.10
2018-03-26T05:29:53.091Z,9.17
2018-03-26T05:32:20.586Z,9.27
2018-03-26T05:34:48.077Z,10.20
2018-03-26T05:37:15.594Z,9.97
2018-03-26T05:39:43.094Z,9.60
2018-03-26T05:42:10.656Z,10.07
2018-03-26T05:44:38.172Z,9.73
2018-03-26T05:47:05.769Z,8.97
2018-03-26T05:49:33.302Z,9.37
2018-03-26T05:52:00.845Z,9.70
2018-03-26T05:54:28.334Z,9.97
2018-03-26T05:56:55.836Z,8.63
2018-03-26T05:59:23.339Z,9.27
2018-03-26T06:01:50.832Z,8.67
2018-03-26T06:04:18.329Z,8.77
2018-03-26T06:06:45.827Z,9.13
2018-03-26T06:09:13.325Z,8.67
2018-03-26T06:11:40.836Z,8.43
2018-03-26T06:14:08.394Z,8.53
2018-03-26T06:16:41.651Z,8.33
2018-03-26T06:19:09.307Z,10.00
2018-03-26T06:21:36.870Z,8.33
2018-03-26T06:24:04.487Z,10.30
2018-03-26T06:26:32.569Z,9.50
2018-03-26T06:29:00.132Z,9.00
2018-03-26T06:31:27.663Z,8.53
2018-03-26T06:33:55.234Z,8.77
2018-03-26T06:36:33.534Z,9.60
2018-03-26T06:39:01.876Z,10.10
2018-03-26T06:41:29.427Z,9.53
2018-03-26T06:43:57.054Z,7.87
2018-03-26T06:46:24.550Z,8.37
2018-03-26T06:48:52.041Z,9.47
2018-03-26T06:51:19.596Z,9.17
2018-03-26T06:53:47.098Z,8.70
2018-03-26T06:56:14.602Z,8.33
2018-03-26T06:58:42.102Z,9.67
2018-03-26T07:01:09.616Z,9.00
2018-03-26T07:03:37.142Z,9.07
2018-03-26T07:06:04.637Z,9.90
2018-03-26T07:08:32.222Z,9.83
2018-03-26T07:10:59.717Z,9.90
2018-03-26T07:13:27.242Z,9.27
2018-03-26T07:15:54.760Z,10.27
2018-03-26T07:18:22.269Z,10.40
2018-03-26T07:20:49.852Z,9.80
2018-03-26T07:23:17.550Z,11.20
2018-03-26T07:25:45.051Z,10.63
2018-03-26T07:28:12.558Z,10.70
2018-03-26T07:30:40.061Z,10.50
2018-03-26T07:33:07.582Z,10.97
2018-03-26T07:35:35.067Z,12.73
2018-03-26T07:38:02.626Z,11.03
2018-03-26T07:40:30.117Z,10.57
2018-03-26T07:42:57.632Z,11.43
2018-03-26T07:45:25.210Z,10.47
2018-03-26T07:47:52.765Z,11.70
2018-03-26T07:50:20.271Z,11.27
2018-03-26T07:52:47.878Z,10.40
2018-03-26T07:55:15.750Z,12.13
2018-03-26T07:57:43.244Z,11.07
2018-03-26T08:00:10.881Z,10.90
2018-03-26T08:02:38.377Z,10.90
2018-03-26T08:05:06.142Z,11.20
2018-03-26T08:07:33.641Z,10.53
2018-03-26T08:10:01.143Z,11.07
2018-03-26T08:12:29.100Z,11.37
2018-03-26T08:14:56.591Z,10.17
2018-03-26T08:17:24.409Z,11.17
2018-03-26T08:19:51.925Z,11.47
2018-03-26T08:22:19.416Z,11.23
2018-03-26T08:24:46.918Z,9.97
2018-03-26T08:27:14.452Z,11.67
2018-03-26T08:29:42.287Z,10.20
2018-03-26T08:32:09.936Z,11.40
2018-03-26T08:34:37.532Z,10.00
2018-03-26T08:37:05.142Z,10.43
2018-03-26T08:39:32.649Z,10.63
2018-03-26T08:42:00.401Z,10.87
2018-03-26T08:44:28.058Z,10.50
2018-03-26T08:46:55.908Z,10.90
2018-03-26T08:49:23.394Z,10.43
2018-03-26T08:51:50.900Z,10.63
2018-03-26T08:54:18.405Z,11.03
2018-03-26T08:56:45.885Z,11.23
2018-03-26T08:59:13.417Z,11.60
2018-03-26T09:01:41.037Z,11.10
2018-03-26T09:04:08.541Z,11.03
2018-03-26T09:06:36.034Z,12.23
2018-03-26T09:09:03.656Z,11.40
2018-03-26T09:11:31.170Z,12.27
2018-03-26T09:13:58.670Z,11.43
2018-03-26T09:16:26.182Z,11.40
2018-03-26T09:18:53.706Z,11.50
2018-03-26T09:21:21.212Z,11.60
2018-03-26T09:23:48.721Z,10.87
2018-03-26T09:26:16.392Z,12.40
2018-03-26T09:28:43.889Z,12.00
2018-03-26T09:31:11.729Z,12.57
2018-03-26T09:33:39.285Z,13.40
2018-03-26T09:36:06.829Z,11.90
2018-03-26T09:38:34.374Z,12.83
2018-03-26T09:41:01.886Z,11.40
2018-03-26T09:43:29.403Z,13.13
2018-03-26T09:45:56.949Z,13.40
2018-03-26T09:48:24.835Z,12.73
2018-03-26T09:50:52.349Z,12.13
2018-03-26T09:53:20.004Z,13.27
2018-03-26T09:55:47.651Z,12.00
2018-03-26T09:58:15.161Z,12.03
2018-03-26T10:00:48.655Z,12.73
2018-03-26T10:03:16.193Z,13.20
2018-03-26T10:05:43.731Z,14.23
2018-03-26T10:08:11.419Z,13.67
2018-03-26T10:10:38.977Z,12.47
2018-03-26T10:13:06.485Z,13.97
2018-03-26T10:15:34.134Z,14.37
2018-03-26T10:18:01.629Z,13.20
2018-03-26T10:20:29.294Z,15.07
2018-03-26T10:22:56.854Z,13.10
2018-03-26T10:25:24.353Z,14.13
2018-03-26T10:27:51.949Z,13.73
2018-03-26T10:30:19.662Z,15.40
2018-03-26T10:32:47.360Z,14.83
2018-03-26T10:35:14.901Z,14.07
2018-03-26T10:37:42.405Z,13.93
2018-03-26T10:40:10.126Z,14.77
2018-03-26T10:42:37.776Z,13.77
2018-03-26T10:45:05.314Z,15.57
2018-03-26T10:47:32.810Z,15.83
2018-03-26T10:50:00.937Z,15.53
2018-03-26T10:52:28.446Z,16.27
2018-03-26T10:54:55.977Z,15.43
2018-03-26T10:57:23.481Z,15.07
2018-03-26T10:59:51.057Z,15.23
2018-03-26T11:02:18.569Z,15.73
2018-03-26T11:04:46.085Z,16.30
2018-03-26T11:07:13.626Z,16.23
2018-03-26T11:09:41.196Z,16.37
2018-03-26T11:12:08.700Z,16.47
2018-03-26T11:14:36.208Z,15.97
2018-03-26T11:17:03.710Z,16.93
2018-03-26T11:19:31.227Z,16.57
2018-03-26T11:21:58.737Z,15.77
2018-03-26T11:24:26.291Z,16.03
2018-03-26T11:26:53.773Z,16.87
2018-03-26T11:29:21.287Z,17.27
2018-03-26T11:31:48.779Z,17.00
2018-03-26T11:34:16.316Z,15.97
2018-03-26T11:36:43.829Z,17.53
2018-03-26T11:39:11.831Z,17.43
2018-03-26T11:41:39.325Z,15.53
2018-03-26T11:44:06.816Z,15.17
2018-03-26T11:46:34.302Z,15.60
2018-03-26T11:49:02.015Z,15.83
2018-03-26T11:51:29.738Z,14.67
2018-03-26T11:53:57.246Z,15.37
2018-03-26T11:56:24.749Z,14.53
2018-03-26T11:58:52.380Z,15.33
2018-03-26T12:01:19.875Z,15.47
2018-03-26T12:03:47.377Z,14.17
2018-03-26T12:06:14.907Z,14.30
2018-03-26T12:08:42.406Z,12.30
2018-03-26T12:11:09.960Z,12.87
2018-03-26T12:13:37.466Z,13.60
2018-03-26T12:16:04.953Z,14.37
2018-03-26T12:18:32.441Z,11.60
2018-03-26T12:20:59.990Z,11.00
2018-03-26T12:23:33.634Z,10.27
2018-03-26T12:26:01.106Z,10.03
2018-03-26T12:28:34.316Z,10.63
2018-03-26T12:31:01.761Z,11.27
2018-03-26T12:33:29.384Z,11.93
2018-03-26T12:35:56.979Z,11.93
2018-03-26T12:38:24.492Z,11.27
2018-03-26T12:40:54.894Z,10.97
2018-03-26T12:43:22.502Z,11.77
2018-03-26T12:45:55.836Z,11.00
2018-03-26T12:48:23.282Z,12.17
2018-03-26T12:50:56.714Z,11.40
2018-03-26T12:53:24.251Z,12.30
2018-03-26T12:55:51.909Z,12.03
2018-03-26T12:58:25.347Z,14.13
2018-03-26T13:00:58.662Z,12.47
2018-03-26T13:03:26.113Z,12.40
2018-03-26T13:05:53.641Z,13.90
2018-03-26T13:08:21.153Z,13.37
2018-03-26T13:10:48.661Z,13.53
2018-03-26T13:13:16.161Z,12.63
2018-03-26T13:15:43.709Z,13.87
2018-03-26T13:18:11.219Z,13.77
2018-03-26T13:20:38.708Z,13.27
2018-03-26T13:23:06.201Z,14.03
2018-03-26T13:25:33.698Z,12.97
2018-03-26T13:28:01.222Z,13.00
2018-03-26T13:30:28.710Z,13.97
2018-03-26T13:32:56.213Z,12.43
2018-03-26T13:35:23.700Z,13.23
2018-03-26T13:37:51.200Z,13.00
2018-03-26T13:40:18.714Z,14.10
2018-03-26T13:42:46.214Z,12.43
2018-03-26T13:45:13.701Z,14.20
2018-03-26T13:47:41.656Z,13.93
2018-03-26T13:50:09.182Z,14.83
2018-03-26T13:52:36.734Z,14.20
2018-03-26T13:55:04.321Z,14.57
2018-03-26T13:57:31.831Z,16.37
2018-03-26T13:59:59.320Z,15.87
2018-03-26T14:02:26.825Z,16.43
2018-03-26T14:04:54.313Z,15.97
2018-03-26T14:07:21.829Z,16.03
2018-03-26T14:09:55.112Z,15.07
2018-03-26T14:12:28.452Z,14.93
2018-03-26T14:15:01.787Z,16.00
2018-03-26T14:17:35.107Z,13.90
2018-03-26T14:20:02.709Z,11.97
2018-03-26T14:22:30.217Z,12.30
2018-03-26T14:24:57.702Z,13.60
2018-03-26T14:27:25.206Z,13.63
2018-03-26T14:29:52.698Z,12.80
2018-03-26T14:32:20.429Z,14.33
2018-03-26T14:34:54.029Z,14.10
2018-03-26T14:37:21.877Z,14.07
2018-03-26T14:39:49.386Z,13.63
2018-03-26T14:42:16.878Z,14.43
2018-03-26T14:44:44.646Z,14.23
2018-03-26T14:47:12.151Z,14.87
2018-03-26T14:49:39.653Z,15.43
2018-03-26T14:52:07.190Z,14.27
2018-03-26T14:54:34.701Z,15.07
2018-03-26T14:57:02.273Z,15.10
2018-03-26T14:59:29.832Z,15.23
2018-03-26T15:01:57.342Z,16.10
2018-03-26T15:04:24.859Z,15.43
2018-03-26T15:06:52.372Z,15.90
2018-03-26T15:09:19.867Z,15.33
2018-03-26T15:11:47.357Z,14.90
2018-03-26T15:14:14.879Z,14.87
2018-03-26T15:16:42.368Z,16.37
2018-03-26T15:19:09.856Z,16.23
2018-03-26T15:21:37.345Z,14.90
2018-03-26T15:24:04.908Z,16.10
2018-03-26T15:26:32.440Z,15.70
2018-03-26T15:28:59.928Z,16.80
2018-03-26T15:31:27.420Z,16.57
2018-03-26T15:33:54.916Z,15.30
2018-03-26T15:36:22.423Z,16.23
2018-03-26T15:38:50.219Z,16.23
2018-03-26T15:41:18.338Z,16.70
2018-03-26T15:43:46.119Z,16.10
2018-03-26T15:46:13.609Z,18.13
2018-03-26T15:48:41.109Z,18.30
2018-03-26T15:51:08.597Z,18.07
2018-03-26T15:53:36.121Z,18.77
2018-03-26T15:56:03.682Z,19.33
2018-03-26T15:58:31.258Z,19.63
2018-03-26T16:00:58.772Z,19.83
2018-03-26T16:03:30.716Z,20.67
2018-03-26T16:05:58.230Z,18.63
2018-03-26T16:08:25.771Z,17.97
2018-03-26T16:10:53.281Z,19.40
2018-03-26T16:13:20.907Z,19.03
2018-03-26T16:15:48.398Z,19.10
2018-03-26T16:18:15.893Z,18.80
2018-03-26T16:20:43.524Z,20.87
2018-03-26T16:23:11.328Z,22.33
2018-03-26T16:25:39.049Z,21.40
2018-03-26T16:28:07.221Z,22.53
2018-03-26T16:30:35.219Z,21.10
2018-03-26T16:33:03.484Z,21.37
2018-03-26T16:35:32.540Z,20.50
2018-03-26T16:38:01.178Z,19.83
2018-03-26T16:40:29.716Z,18.40
2018-03-26T16:42:59.442Z,18.97
2018-03-26T16:45:28.077Z,17.50
2018-03-26T16:47:56.910Z,18.30
2018-03-26T16:50:26.729Z,18.63
2018-03-26T16:52:55.556Z,19.90
2018-03-26T16:55:24.582Z,18.73
2018-03-26T16:57:53.416Z,19.27
2018-03-26T17:00:22.844Z,17.73
2018-03-26T17:02:51.673Z,19.07
2018-03-26T17:05:20.309Z,20.93
2018-03-26T17:07:49.542Z,19.33
2018-03-26T17:10:18.564Z,18.67
2018-03-26T17:12:47.400Z,18.47
2018-03-26T17:15:16.035Z,18.57
2018-03-26T17:17:44.874Z,19.07
2018-03-26T17:20:13.701Z,19.30
2018-03-26T17:22:42.755Z,19.10
2018-03-26T17:25:13.480Z,18.10
2018-03-26T17:27:42.069Z,19.37
2018-03-26T17:30:10.813Z,17.73
2018-03-26T17:32:40.225Z,15.63
2018-03-26T17:35:08.869Z,17.30
2018-03-26T17:37:37.602Z,17.13
2018-03-26T17:40:06.338Z,17.27
2018-03-26T17:42:35.073Z,16.60
2018-03-26T17:45:04.012Z,16.87
2018-03-26T17:47:33.227Z,16.73
2018-03-26T17:50:02.267Z,18.70
2018-03-26T17:52:30.719Z,18.40
2018-03-26T17:54:59.535Z,17.93
2018-03-26T17:57:28.364Z,20.67
2018-03-26T17:59:57.206Z,20.30
2018-03-26T18:02:26.037Z,19.07
2018-03-26T18:04:54.862Z,21.20
2018-03-26T18:07:23.604Z,20.30
2018-03-26T18:09:52.446Z,19.63
2018-03-26T18:12:21.360Z,20.83
2018-03-26T18:14:50.191Z,19.33
2018-03-26T18:17:19.037Z,16.33
2018-03-26T18:19:47.870Z,16.03
2018-03-26T18:22:17.089Z,17.37
2018-03-26T18:24:45.728Z,18.13
2018-03-26T18:27:14.947Z,16.80
2018-03-26T18:29:43.793Z,15.27
2018-03-26T18:32:12.641Z,15.37
2018-03-26T18:34:41.646Z,14.83
2018-03-26T18:37:10.681Z,13.60
2018-03-26T18:39:39.512Z,14.87
2018-03-26T18:42:08.058Z,13.33
2018-03-26T18:44:36.792Z,14.30
2018-03-26T18:47:05.813Z,13.50
2018-03-26T18:49:34.458Z,12.93
2018-03-26T18:52:03.284Z,12.40
2018-03-26T18:54:32.309Z,13.00
2018-03-26T18:57:01.216Z,12.27
2018-03-26T18:59:30.172Z,13.00
2018-03-26T19:01:58.814Z,13.87
2018-03-26T19:04:28.036Z,14.33
2018-03-26T19:06:56.875Z,13.80
2018-03-26T19:09:25.714Z,13.73
2018-03-26T19:11:54.731Z,15.70
2018-03-26T19:14:23.767Z,15.60
2018-03-26T19:16:52.605Z,17.67
2018-03-26T19:19:21.434Z,15.73
2018-03-26T19:21:49.973Z,14.97
2018-03-26T19:24:18.898Z,15.30
2018-03-26T19:26:47.938Z,15.80
2018-03-26T19:29:16.956Z,14.67
2018-03-26T19:31:45.797Z,15.10
2018-03-26T19:34:14.434Z,14.90
2018-03-26T19:36:43.462Z,13.60
2018-03-26T19:39:12.096Z,13.83
2018-03-26T19:41:40.927Z,12.53
2018-03-26T19:44:09.957Z,12.83
2018-03-26T19:46:38.986Z,12.57
2018-03-26T19:49:08.211Z,11.63
2018-03-26T19:51:37.044Z,11.40
2018-03-26T19:54:05.688Z,12.37
2018-03-26T19:56:33.783Z,11.70
2018-03-26T19:59:01.617Z,12.13
2018-03-26T20:01:29.454Z,11.47
2018-03-26T20:03:57.353Z,11.73
2018-03-26T20:06:25.224Z,10.77
2018-03-26T20:08:54.160Z,11.97
2018-03-26T20:11:24.368Z,11.10
2018-03-26T20:13:53.112Z,11.23
2018-03-26T20:16:22.035Z,11.70
2018-03-26T20:18:50.878Z,11.60
2018-03-26T20:21:18.722Z,10.83
2018-03-26T20:23:46.579Z,11.73
2018-03-26T20:26:15.118Z,10.93
2018-03-26T20:28:42.983Z,10.93
2018-03-26T20:31:10.818Z,11.07
2018-03-26T20:33:39.746Z,11.43
2018-03-26T20:36:08.580Z,10.63
2018-03-26T20:38:37.211Z,10.90
2018-03-26T20:41:05.854Z,12.00
2018-03-26T20:43:34.677Z,10.83
2018-03-26T20:46:03.377Z,11.23
2018-03-26T20:48:31.957Z,11.13
2018-03-26T20:51:00.790Z,11.00
2018-03-26T20:53:29.627Z,11.33
2018-03-26T20:55:58.461Z,11.60
2018-03-26T20:58:27.283Z,11.60
2018-03-26T21:00:55.835Z,11.43
2018-03-26T21:03:24.579Z,12.17
2018-03-26T21:05:53.585Z,11.53
2018-03-26T21:08:21.782Z,12.17
2018-03-26T21:10:50.476Z,14.07
2018-03-26T21:13:19.005Z,14.57
2018-03-26T21:15:47.934Z,14.27
2018-03-26T21:18:16.767Z,14.93
2018-03-26T21:20:45.619Z,14.27
2018-03-26T21:23:14.239Z,13.47
2018-03-26T21:25:42.245Z,16.07
2018-03-26T21:28:10.041Z,15.00
2018-03-26T21:30:37.788Z,16.03
2018-03-26T21:33:05.641Z,16.23
2018-03-26T21:35:33.341Z,16.63
2018-03-26T21:38:01.165Z,16.50
2018-03-26T21:40:28.839Z,16.13
2018-03-26T21:42:56.347Z,17.60
2018-03-26T21:45:23.843Z,16.63
2018-03-26T21:47:51.337Z,17.33
2018-03-26T21:50:19.017Z,18.73
2018-03-26T21:52:46.525Z,16.97
2018-03-26T21:55:14.174Z,18.80
2018-03-26T21:57:41.663Z,19.47
2018-03-26T22:00:24.178Z,18.90
2018-03-26T22:02:51.834Z,19.90
2018-03-26T22:05:19.363Z,17.53
2018-03-26T22:07:47.138Z,18.37
2018-03-26T22:10:15.037Z,17.43
2018-03-26T22:12:42.643Z,17.60
2018-03-26T22:15:10.341Z,18.50
2018-03-26T22:17:38.144Z,17.50
2018-03-26T22:20:05.648Z,18.43
2018-03-26T22:22:33.208Z,18.83
2018-03-26T22:25:00.910Z,18.50
2018-03-26T22:27:28.429Z,19.40
2018-03-26T22:29:55.943Z,18.57
2018-03-26T22:32:23.721Z,18.77
2018-03-26T22:34:51.361Z,19.47
2018-03-26T22:37:18.866Z,20.90
2018-03-26T22:39:46.565Z,19.90
2018-03-26T22:42:14.136Z,20.27
2018-03-26T22:44:41.857Z,21.13
2018-03-26T22:47:09.323Z,21.33
2018-03-26T22:49:36.824Z,20.87
2018-03-26T22:52:04.322Z,20.63
2018-03-26T22:54:32.193Z,20.50
2018-03-26T22:56:59.676Z,20.97
2018-03-26T22:59:27.169Z,21.20
2018-03-26T23:01:54.778Z,21.50
2018-03-26T23:04:22.582Z,21.60
2018-03-26T23:06:50.102Z,22.97
2018-03-26T23:09:17.597Z,21.30
2018-03-26T23:11:45.442Z,22.27
2018-03-26T23:14:13.056Z,22.17
2018-03-26T23:16:41.041Z,22.03
2018-03-26T23:19:09.089Z,21.90
2018-03-26T23:21:36.943Z,22.97
2018-03-26T23:24:04.646Z,23.40
2018-03-26T23:26:32.234Z,23.87
2018-03-26T23:28:59.952Z,24.20
2018-03-26T23:31:27.944Z,23.20
2018-03-26T23:33:55.603Z,24.23
2018-03-26T23:36:23.094Z,22.30
2018-03-26T23:38:50.594Z,22.43
2018-03-26T23:41:18.093Z,21.50
2018-03-26T23:43:45.593Z,22.30
2018-03-26T23:46:13.213Z,21.93
2018-03-26T23:48:40.718Z,22.80
2018-03-26T23:51:08.439Z,21.33
2018-03-26T23:53:36.043Z,20.07
2018-03-26T23:56:03.742Z,20.50
2018-03-26T23:58:31.547Z,21.33
